sensor_id;sensor_type;location;lat;lon;timestamp;P1;durP1;ratioP1;P2;durP2;ratioP2
32786;SDS011;19139;49.372;8.580;2023-11-21T00:02:26;1.90;;;0.90;;
32786;SDS011;19139;49.372;8.580;2023-11-21T00:04:54;2.40;;;0.80;;
32786;SDS011;19139;49.372;8.580;2023-11-21T00:07:21;1.10;;;0.93;;
32786;SDS011;19139;49.372;8.580;2023-11-21T00:09:48;1.37;;;0.97;;
32786;SDS011;19139;49.372;8.580;2023-11-21T00:12:15;1.40;;;0.70;;
32786;SDS011;19139;49.372;8.580;2023-11-21T00:14:42;1.90;;;1.10;;
32786;SDS011;19139;49.372;8.580;2023-11-21T00:17:10;1.80;;;0.80;;
32786;SDS011;19139;49.372;8.580;2023-11-21T00:19:37;1.03;;;0.87;;
32786;SDS011;19139;49.372;8.580;2023-11-21T00:22:04;1.00;;;0.60;;
32786;SDS011;19139;49.372;8.580;2023-11-21T00:24:32;1.63;;;0.80;;
32786;SDS011;19139;49.372;8.580;2023-11-21T00:26:59;1.83;;;0.80;;
32786;SDS011;19139;49.372;8.580;2023-11-21T00:29:26;1.53;;;0.57;;
32786;SDS011;19139;49.372;8.580;2023-11-21T00:31:54;0.97;;;0.70;;
32786;SDS011;19139;49.372;8.580;2023-11-21T00:34:21;1.57;;;0.70;;
32786;SDS011;19139;49.372;8.580;2023-11-21T00:36:48;2.60;;;1.00;;
32786;SDS011;19139;49.372;8.580;2023-11-21T00:39:15;1.57;;;0.77;;
32786;SDS011;19139;49.372;8.580;2023-11-21T00:41:42;0.93;;;0.77;;
32786;SDS011;19139;49.372;8.580;2023-11-21T00:44:11;1.73;;;1.17;;
32786;SDS011;19139;49.372;8.580;2023-11-21T00:46:38;1.20;;;0.70;;
32786;SDS011;19139;49.372;8.580;2023-11-21T00:49:05;1.40;;;0.80;;
32786;SDS011;19139;49.372;8.580;2023-11-21T00:51:32;2.73;;;0.80;;
32786;SDS011;19139;49.372;8.580;2023-11-21T00:53:59;1.57;;;0.67;;
32786;SDS011;19139;49.372;8.580;2023-11-21T00:56:27;0.93;;;0.73;;
32786;SDS011;19139;49.372;8.580;2023-11-21T00:58:54;1.37;;;0.70;;
32786;SDS011;19139;49.372;8.580;2023-11-21T01:01:21;1.60;;;0.90;;
32786;SDS011;19139;49.372;8.580;2023-11-21T01:03:50;1.40;;;0.70;;
32786;SDS011;19139;49.372;8.580;2023-11-21T01:06:17;1.07;;;0.60;;
32786;SDS011;19139;49.372;8.580;2023-11-21T01:08:45;1.47;;;0.53;;
32786;SDS011;19139;49.372;8.580;2023-11-21T01:11:12;1.20;;;0.77;;
32786;SDS011;19139;49.372;8.580;2023-11-21T01:13:39;1.53;;;0.70;;
32786;SDS011;19139;49.372;8.580;2023-11-21T01:16:07;1.13;;;0.77;;
32786;SDS011;19139;49.372;8.580;2023-11-21T01:18:35;1.00;;;0.60;;
32786;SDS011;19139;49.372;8.580;2023-11-21T01:21:02;0.90;;;0.70;;
32786;SDS011;19139;49.372;8.580;2023-11-21T01:23:29;1.13;;;0.80;;
32786;SDS011;19139;49.372;8.580;2023-11-21T01:25:56;2.30;;;1.00;;
32786;SDS011;19139;49.372;8.580;2023-11-21T01:28:23;0.97;;;0.60;;
32786;SDS011;19139;49.372;8.580;2023-11-21T01:30:50;1.67;;;0.90;;
32786;SDS011;19139;49.372;8.580;2023-11-21T01:33:17;0.90;;;0.47;;
32786;SDS011;19139;49.372;8.580;2023-11-21T01:35:45;1.07;;;0.50;;
32786;SDS011;19139;49.372;8.580;2023-11-21T01:38:12;0.93;;;0.80;;
32786;SDS011;19139;49.372;8.580;2023-11-21T01:40:41;1.20;;;0.63;;
32786;SDS011;19139;49.372;8.580;2023-11-21T01:43:08;1.40;;;0.90;;
32786;SDS011;19139;49.372;8.580;2023-11-21T01:45:35;2.20;;;1.00;;
32786;SDS011;19139;49.372;8.580;2023-11-21T01:48:02;0.80;;;0.50;;
32786;SDS011;19139;49.372;8.580;2023-11-21T01:50:30;2.03;;;0.77;;
32786;SDS011;19139;49.372;8.580;2023-11-21T01:52:57;0.90;;;0.63;;
32786;SDS011;19139;49.372;8.580;2023-11-21T01:55:24;1.00;;;0.70;;
32786;SDS011;19139;49.372;8.580;2023-11-21T01:57:54;1.20;;;0.67;;
32786;SDS011;19139;49.372;8.580;2023-11-21T02:00:22;1.00;;;0.70;;
32786;SDS011;19139;49.372;8.580;2023-11-21T02:02:50;1.27;;;0.87;;
32786;SDS011;19139;49.372;8.580;2023-11-21T02:05:18;1.47;;;0.77;;
32786;SDS011;19139;49.372;8.580;2023-11-21T02:07:47;1.00;;;0.60;;
32786;SDS011;19139;49.372;8.580;2023-11-21T02:10:15;0.83;;;0.60;;
32786;SDS011;19139;49.372;8.580;2023-11-21T02:12:43;0.77;;;0.50;;
32786;SDS011;19139;49.372;8.580;2023-11-21T02:15:14;0.93;;;0.57;;
32786;SDS011;19139;49.372;8.580;2023-11-21T02:17:46;1.17;;;0.80;;
32786;SDS011;19139;49.372;8.580;2023-11-21T02:20:17;1.77;;;1.07;;
32786;SDS011;19139;49.372;8.580;2023-11-21T02:22:52;1.37;;;0.77;;
32786;SDS011;19139;49.372;8.580;2023-11-21T02:25:24;1.20;;;0.70;;
32786;SDS011;19139;49.372;8.580;2023-11-21T02:27:51;1.03;;;0.70;;
32786;SDS011;19139;49.372;8.580;2023-11-21T02:30:21;0.70;;;0.53;;
32786;SDS011;19139;49.372;8.580;2023-11-21T02:32:48;0.83;;;0.50;;
32786;SDS011;19139;49.372;8.580;2023-11-21T02:35:15;0.80;;;0.50;;
32786;SDS011;19139;49.372;8.580;2023-11-21T02:37:42;1.57;;;0.67;;
32786;SDS011;19139;49.372;8.580;2023-11-21T02:40:10;1.30;;;0.70;;
32786;SDS011;19139;49.372;8.580;2023-11-21T02:42:41;1.23;;;0.70;;
32786;SDS011;19139;49.372;8.580;2023-11-21T02:45:08;1.13;;;0.80;;
32786;SDS011;19139;49.372;8.580;2023-11-21T02:47:39;1.53;;;0.70;;
32786;SDS011;19139;49.372;8.580;2023-11-21T02:50:06;0.80;;;0.57;;
32786;SDS011;19139;49.372;8.580;2023-11-21T02:52:36;0.70;;;0.53;;
32786;SDS011;19139;49.372;8.580;2023-11-21T02:55:03;1.17;;;0.73;;
32786;SDS011;19139;49.372;8.580;2023-11-21T02:57:30;1.63;;;0.80;;
32786;SDS011;19139;49.372;8.580;2023-11-21T02:59:58;0.73;;;0.60;;
32786;SDS011;19139;49.372;8.580;2023-11-21T03:02:25;0.70;;;0.67;;
32786;SDS011;19139;49.372;8.580;2023-11-21T03:04:53;1.33;;;0.80;;
32786;SDS011;19139;49.372;8.580;2023-11-21T03:07:20;1.43;;;0.60;;
32786;SDS011;19139;49.372;8.580;2023-11-21T03:09:47;1.53;;;1.27;;
32786;SDS011;19139;49.372;8.580;2023-11-21T03:12:14;1.13;;;0.70;;
32786;SDS011;19139;49.372;8.580;2023-11-21T03:14:42;0.67;;;0.67;;
32786;SDS011;19139;49.372;8.580;2023-11-21T03:17:09;1.13;;;0.60;;
32786;SDS011;19139;49.372;8.580;2023-11-21T03:19:36;0.73;;;0.60;;
32786;SDS011;19139;49.372;8.580;2023-11-21T03:22:03;1.10;;;0.67;;
32786;SDS011;19139;49.372;8.580;2023-11-21T03:24:30;0.80;;;0.60;;
32786;SDS011;19139;49.372;8.580;2023-11-21T03:26:57;1.70;;;0.63;;
32786;SDS011;19139;49.372;8.580;2023-11-21T03:29:25;0.80;;;0.70;;
32786;SDS011;19139;49.372;8.580;2023-11-21T03:31:52;1.37;;;0.70;;
32786;SDS011;19139;49.372;8.580;2023-11-21T03:34:26;0.67;;;0.50;;
32786;SDS011;19139;49.372;8.580;2023-11-21T03:36:53;0.90;;;0.60;;
32786;SDS011;19139;49.372;8.580;2023-11-21T03:39:21;1.30;;;0.97;;
32786;SDS011;19139;49.372;8.580;2023-11-21T03:41:48;0.97;;;0.70;;
32786;SDS011;19139;49.372;8.580;2023-11-21T03:44:15;0.97;;;0.60;;
32786;SDS011;19139;49.372;8.580;2023-11-21T03:46:43;1.00;;;0.70;;
32786;SDS011;19139;49.372;8.580;2023-11-21T03:49:11;0.53;;;0.53;;
32786;SDS011;19139;49.372;8.580;2023-11-21T03:51:38;1.00;;;0.90;;
32786;SDS011;19139;49.372;8.580;2023-11-21T03:54:05;0.90;;;0.63;;
32786;SDS011;19139;49.372;8.580;2023-11-21T03:56:32;1.10;;;0.70;;
32786;SDS011;19139;49.372;8.580;2023-11-21T03:58:59;1.33;;;0.60;;
32786;SDS011;19139;49.372;8.580;2023-11-21T04:01:26;1.30;;;0.60;;
32786;SDS011;19139;49.372;8.580;2023-11-21T04:03:53;2.53;;;1.93;;
32786;SDS011;19139;49.372;8.580;2023-11-21T04:06:20;1.00;;;0.63;;
32786;SDS011;19139;49.372;8.580;2023-11-21T04:08:47;0.90;;;0.50;;
32786;SDS011;19139;49.372;8.580;2023-11-21T04:11:14;1.13;;;0.70;;
32786;SDS011;19139;49.372;8.580;2023-11-21T04:13:42;1.17;;;0.80;;
32786;SDS011;19139;49.372;8.580;2023-11-21T04:16:09;1.73;;;0.57;;
32786;SDS011;19139;49.372;8.580;2023-11-21T04:18:36;0.83;;;0.57;;
32786;SDS011;19139;49.372;8.580;2023-11-21T04:21:07;1.00;;;0.47;;
32786;SDS011;19139;49.372;8.580;2023-11-21T04:23:34;1.00;;;0.70;;
32786;SDS011;19139;49.372;8.580;2023-11-21T04:26:02;1.20;;;0.57;;
32786;SDS011;19139;49.372;8.580;2023-11-21T04:28:29;0.80;;;0.60;;
32786;SDS011;19139;49.372;8.580;2023-11-21T04:30:56;1.03;;;0.53;;
32786;SDS011;19139;49.372;8.580;2023-11-21T04:33:24;1.20;;;0.53;;
32786;SDS011;19139;49.372;8.580;2023-11-21T04:35:51;1.00;;;0.60;;
32786;SDS011;19139;49.372;8.580;2023-11-21T04:38:18;1.57;;;0.53;;
32786;SDS011;19139;49.372;8.580;2023-11-21T04:40:45;1.70;;;0.50;;
32786;SDS011;19139;49.372;8.580;2023-11-21T04:43:12;1.47;;;0.60;;
32786;SDS011;19139;49.372;8.580;2023-11-21T04:45:39;1.37;;;0.77;;
32786;SDS011;19139;49.372;8.580;2023-11-21T04:48:07;1.03;;;0.60;;
32786;SDS011;19139;49.372;8.580;2023-11-21T04:50:35;1.10;;;0.60;;
32786;SDS011;19139;49.372;8.580;2023-11-21T04:53:02;1.33;;;0.60;;
32786;SDS011;19139;49.372;8.580;2023-11-21T04:55:29;0.70;;;0.40;;
32786;SDS011;19139;49.372;8.580;2023-11-21T04:57:56;0.93;;;0.60;;
32786;SDS011;19139;49.372;8.580;2023-11-21T05:00:23;0.93;;;0.60;;
32786;SDS011;19139;49.372;8.580;2023-11-21T05:02:50;1.00;;;0.70;;
32786;SDS011;19139;49.372;8.580;2023-11-21T05:05:18;0.87;;;0.70;;
32786;SDS011;19139;49.372;8.580;2023-11-21T05:07:45;0.73;;;0.40;;
32786;SDS011;19139;49.372;8.580;2023-11-21T05:10:12;1.60;;;0.70;;
32786;SDS011;19139;49.372;8.580;2023-11-21T05:12:41;0.80;;;0.63;;
32786;SDS011;19139;49.372;8.580;2023-11-21T05:15:09;1.50;;;0.70;;
32786;SDS011;19139;49.372;8.580;2023-11-21T05:17:39;0.97;;;0.43;;
32786;SDS011;19139;49.372;8.580;2023-11-21T05:20:10;0.83;;;0.60;;
32786;SDS011;19139;49.372;8.580;2023-11-21T05:22:40;0.50;;;0.50;;
32786;SDS011;19139;49.372;8.580;2023-11-21T05:25:08;1.10;;;0.53;;
32786;SDS011;19139;49.372;8.580;2023-11-21T05:27:35;0.80;;;0.70;;
32786;SDS011;19139;49.372;8.580;2023-11-21T05:30:03;1.50;;;0.57;;
32786;SDS011;19139;49.372;8.580;2023-11-21T05:32:31;1.00;;;0.63;;
32786;SDS011;19139;49.372;8.580;2023-11-21T05:34:59;1.70;;;0.60;;
32786;SDS011;19139;49.372;8.580;2023-11-21T05:37:26;0.63;;;0.50;;
32786;SDS011;19139;49.372;8.580;2023-11-21T05:39:53;1.13;;;0.87;;
32786;SDS011;19139;49.372;8.580;2023-11-21T05:42:23;1.77;;;0.80;;
32786;SDS011;19139;49.372;8.580;2023-11-21T05:44:50;1.20;;;0.50;;
32786;SDS011;19139;49.372;8.580;2023-11-21T05:47:17;2.10;;;0.60;;
32786;SDS011;19139;49.372;8.580;2023-11-21T05:49:45;0.53;;;0.50;;
32786;SDS011;19139;49.372;8.580;2023-11-21T05:52:16;1.70;;;0.90;;
32786;SDS011;19139;49.372;8.580;2023-11-21T05:54:44;0.80;;;0.50;;
32786;SDS011;19139;49.372;8.580;2023-11-21T05:57:11;0.60;;;0.43;;
32786;SDS011;19139;49.372;8.580;2023-11-21T05:59:38;0.73;;;0.50;;
32786;SDS011;19139;49.372;8.580;2023-11-21T06:02:05;1.27;;;0.63;;
32786;SDS011;19139;49.372;8.580;2023-11-21T06:04:33;0.63;;;0.40;;
32786;SDS011;19139;49.372;8.580;2023-11-21T06:07:01;0.80;;;0.50;;
32786;SDS011;19139;49.372;8.580;2023-11-21T06:09:28;1.27;;;0.70;;
32786;SDS011;19139;49.372;8.580;2023-11-21T06:11:55;1.53;;;0.50;;
32786;SDS011;19139;49.372;8.580;2023-11-21T06:14:22;0.63;;;0.50;;
32786;SDS011;19139;49.372;8.580;2023-11-21T06:16:49;1.10;;;0.70;;
32786;SDS011;19139;49.372;8.580;2023-11-21T06:19:18;0.77;;;0.57;;
32786;SDS011;19139;49.372;8.580;2023-11-21T06:21:46;0.60;;;0.50;;
32786;SDS011;19139;49.372;8.580;2023-11-21T06:24:13;1.13;;;0.63;;
32786;SDS011;19139;49.372;8.580;2023-11-21T06:26:41;0.80;;;0.63;;
32786;SDS011;19139;49.372;8.580;2023-11-21T06:29:10;1.40;;;0.80;;
32786;SDS011;19139;49.372;8.580;2023-11-21T06:31:37;0.60;;;0.50;;
32786;SDS011;19139;49.372;8.580;2023-11-21T06:34:04;1.10;;;0.70;;
32786;SDS011;19139;49.372;8.580;2023-11-21T06:36:31;0.50;;;0.43;;
32786;SDS011;19139;49.372;8.580;2023-11-21T06:38:58;0.70;;;0.57;;
32786;SDS011;19139;49.372;8.580;2023-11-21T06:41:25;0.40;;;0.30;;
32786;SDS011;19139;49.372;8.580;2023-11-21T06:43:53;1.17;;;0.90;;
32786;SDS011;19139;49.372;8.580;2023-11-21T06:46:20;0.83;;;0.60;;
32786;SDS011;19139;49.372;8.580;2023-11-21T06:48:48;1.30;;;0.50;;
32786;SDS011;19139;49.372;8.580;2023-11-21T06:51:15;0.73;;;0.50;;
32786;SDS011;19139;49.372;8.580;2023-11-21T06:53:43;0.97;;;0.70;;
32786;SDS011;19139;49.372;8.580;2023-11-21T06:56:17;0.90;;;0.70;;
32786;SDS011;19139;49.372;8.580;2023-11-21T06:58:45;0.83;;;0.57;;
32786;SDS011;19139;49.372;8.580;2023-11-21T07:01:16;1.00;;;0.70;;
32786;SDS011;19139;49.372;8.580;2023-11-21T07:03:43;2.00;;;0.73;;
32786;SDS011;19139;49.372;8.580;2023-11-21T07:06:10;1.17;;;0.60;;
32786;SDS011;19139;49.372;8.580;2023-11-21T07:08:37;0.80;;;0.60;;
32786;SDS011;19139;49.372;8.580;2023-11-21T07:11:04;1.00;;;0.60;;
32786;SDS011;19139;49.372;8.580;2023-11-21T07:13:31;1.07;;;0.67;;
32786;SDS011;19139;49.372;8.580;2023-11-21T07:15:59;1.20;;;0.60;;
32786;SDS011;19139;49.372;8.580;2023-11-21T07:18:26;1.03;;;0.60;;
32786;SDS011;19139;49.372;8.580;2023-11-21T07:20:53;0.90;;;0.57;;
32786;SDS011;19139;49.372;8.580;2023-11-21T07:23:20;3.73;;;3.03;;
32786;SDS011;19139;49.372;8.580;2023-11-21T07:25:48;3.70;;;3.10;;
32786;SDS011;19139;49.372;8.580;2023-11-21T07:28:15;8.17;;;4.63;;
32786;SDS011;19139;49.372;8.580;2023-11-21T07:30:43;5.50;;;4.17;;
32786;SDS011;19139;49.372;8.580;2023-11-21T07:33:10;4.90;;;4.50;;
32786;SDS011;19139;49.372;8.580;2023-11-21T07:35:37;6.07;;;4.90;;
32786;SDS011;19139;49.372;8.580;2023-11-21T07:38:04;7.13;;;5.63;;
32786;SDS011;19139;49.372;8.580;2023-11-21T07:40:31;5.70;;;4.97;;
32786;SDS011;19139;49.372;8.580;2023-11-21T07:42:59;12.07;;;6.10;;
32786;SDS011;19139;49.372;8.580;2023-11-21T07:45:26;7.70;;;5.27;;
32786;SDS011;19139;49.372;8.580;2023-11-21T07:47:56;8.10;;;6.73;;
32786;SDS011;19139;49.372;8.580;2023-11-21T07:50:23;6.93;;;5.63;;
32786;SDS011;19139;49.372;8.580;2023-11-21T07:52:50;8.03;;;6.10;;
32786;SDS011;19139;49.372;8.580;2023-11-21T07:55:18;7.23;;;5.63;;
32786;SDS011;19139;49.372;8.580;2023-11-21T07:57:45;7.00;;;5.83;;
32786;SDS011;19139;49.372;8.580;2023-11-21T08:00:12;7.30;;;5.70;;
32786;SDS011;19139;49.372;8.580;2023-11-21T08:02:41;8.27;;;6.53;;
32786;SDS011;19139;49.372;8.580;2023-11-21T08:05:09;7.27;;;5.90;;
32786;SDS011;19139;49.372;8.580;2023-11-21T08:07:49;7.87;;;6.63;;
32786;SDS011;19139;49.372;8.580;2023-11-21T08:10:16;5.23;;;4.53;;
32786;SDS011;19139;49.372;8.580;2023-11-21T08:12:44;4.03;;;3.63;;
32786;SDS011;19139;49.372;8.580;2023-11-21T08:15:11;7.63;;;4.33;;
32786;SDS011;19139;49.372;8.580;2023-11-21T08:17:38;3.87;;;3.17;;
32786;SDS011;19139;49.372;8.580;2023-11-21T08:20:06;6.97;;;3.40;;
32786;SDS011;19139;49.372;8.580;2023-11-21T08:22:35;4.03;;;2.33;;
32786;SDS011;19139;49.372;8.580;2023-11-21T08:25:02;4.23;;;2.60;;
32786;SDS011;19139;49.372;8.580;2023-11-21T08:27:32;4.07;;;2.30;;
32786;SDS011;19139;49.372;8.580;2023-11-21T08:29:59;3.23;;;2.03;;
32786;SDS011;19139;49.372;8.580;2023-11-21T08:32:26;2.67;;;1.80;;
32786;SDS011;19139;49.372;8.580;2023-11-21T08:34:53;3.87;;;1.90;;
32786;SDS011;19139;49.372;8.580;2023-11-21T08:37:21;3.07;;;1.87;;
32786;SDS011;19139;49.372;8.580;2023-11-21T08:39:48;4.07;;;1.40;;
32786;SDS011;19139;49.372;8.580;2023-11-21T08:42:15;3.77;;;1.60;;
32786;SDS011;19139;49.372;8.580;2023-11-21T08:44:42;2.97;;;1.43;;
32786;SDS011;19139;49.372;8.580;2023-11-21T08:47:09;2.67;;;1.53;;
32786;SDS011;19139;49.372;8.580;2023-11-21T08:49:36;3.33;;;1.63;;
32786;SDS011;19139;49.372;8.580;2023-11-21T08:52:04;3.17;;;1.30;;
32786;SDS011;19139;49.372;8.580;2023-11-21T08:54:31;2.57;;;1.23;;
32786;SDS011;19139;49.372;8.580;2023-11-21T08:56:58;2.80;;;1.30;;
32786;SDS011;19139;49.372;8.580;2023-11-21T08:59:25;2.37;;;1.40;;
32786;SDS011;19139;49.372;8.580;2023-11-21T09:01:52;2.43;;;1.30;;
32786;SDS011;19139;49.372;8.580;2023-11-21T09:04:19;2.10;;;1.20;;
32786;SDS011;19139;49.372;8.580;2023-11-21T09:06:47;6.07;;;1.40;;
32786;SDS011;19139;49.372;8.580;2023-11-21T09:09:14;2.53;;;1.30;;
32786;SDS011;19139;49.372;8.580;2023-11-21T09:11:41;2.90;;;1.27;;
32786;SDS011;19139;49.372;8.580;2023-11-21T09:14:10;4.10;;;1.17;;
32786;SDS011;19139;49.372;8.580;2023-11-21T09:16:39;3.00;;;1.53;;
32786;SDS011;19139;49.372;8.580;2023-11-21T09:19:06;1.77;;;1.13;;
32786;SDS011;19139;49.372;8.580;2023-11-21T09:21:33;3.87;;;1.20;;
32786;SDS011;19139;49.372;8.580;2023-11-21T09:24:00;1.30;;;0.90;;
32786;SDS011;19139;49.372;8.580;2023-11-21T09:26:28;2.23;;;1.10;;
32786;SDS011;19139;49.372;8.580;2023-11-21T09:28:56;4.03;;;1.67;;
32786;SDS011;19139;49.372;8.580;2023-11-21T09:31:23;2.13;;;1.57;;
32786;SDS011;19139;49.372;8.580;2023-11-21T09:33:50;7.93;;;1.13;;
32786;SDS011;19139;49.372;8.580;2023-11-21T09:36:17;3.50;;;1.40;;
32786;SDS011;19139;49.372;8.580;2023-11-21T09:38:44;2.13;;;1.20;;
32786;SDS011;19139;49.372;8.580;2023-11-21T09:41:15;2.30;;;1.30;;
32786;SDS011;19139;49.372;8.580;2023-11-21T09:43:46;2.47;;;1.63;;
32786;SDS011;19139;49.372;8.580;2023-11-21T09:46:14;3.07;;;1.40;;
32786;SDS011;19139;49.372;8.580;2023-11-21T09:48:48;3.73;;;1.63;;
32786;SDS011;19139;49.372;8.580;2023-11-21T09:51:19;2.30;;;1.37;;
32786;SDS011;19139;49.372;8.580;2023-11-21T09:53:49;2.80;;;1.47;;
32786;SDS011;19139;49.372;8.580;2023-11-21T09:56:20;3.00;;;1.23;;
32786;SDS011;19139;49.372;8.580;2023-11-21T09:58:51;2.30;;;1.40;;
32786;SDS011;19139;49.372;8.580;2023-11-21T10:01:19;2.17;;;1.30;;
32786;SDS011;19139;49.372;8.580;2023-11-21T10:03:47;3.77;;;1.57;;
32786;SDS011;19139;49.372;8.580;2023-11-21T10:06:14;1.83;;;1.30;;
32786;SDS011;19139;49.372;8.580;2023-11-21T10:08:42;3.23;;;1.30;;
32786;SDS011;19139;49.372;8.580;2023-11-21T10:11:20;1.87;;;1.17;;
32786;SDS011;19139;49.372;8.580;2023-11-21T10:13:49;1.60;;;1.17;;
32786;SDS011;19139;49.372;8.580;2023-11-21T10:16:16;3.17;;;1.87;;
32786;SDS011;19139;49.372;8.580;2023-11-21T10:18:48;5.40;;;1.30;;
32786;SDS011;19139;49.372;8.580;2023-11-21T10:21:16;2.97;;;1.30;;
32786;SDS011;19139;49.372;8.580;2023-11-21T10:23:43;2.00;;;1.33;;
32786;SDS011;19139;49.372;8.580;2023-11-21T10:26:11;2.20;;;1.30;;
32786;SDS011;19139;49.372;8.580;2023-11-21T10:29:00;2.10;;;1.30;;
32786;SDS011;19139;49.372;8.580;2023-11-21T10:31:27;2.77;;;1.30;;
32786;SDS011;19139;49.372;8.580;2023-11-21T10:33:54;2.17;;;1.53;;
32786;SDS011;19139;49.372;8.580;2023-11-21T10:36:28;2.50;;;1.33;;
32786;SDS011;19139;49.372;8.580;2023-11-21T10:38:55;1.93;;;1.30;;
32786;SDS011;19139;49.372;8.580;2023-11-21T10:41:23;2.43;;;1.73;;
32786;SDS011;19139;49.372;8.580;2023-11-21T10:43:52;2.77;;;1.20;;
32786;SDS011;19139;49.372;8.580;2023-11-21T10:46:22;2.70;;;1.10;;
32786;SDS011;19139;49.372;8.580;2023-11-21T10:48:53;2.60;;;1.00;;
32786;SDS011;19139;49.372;8.580;2023-11-21T10:51:22;2.43;;;1.10;;
32786;SDS011;19139;49.372;8.580;2023-11-21T10:53:53;1.83;;;0.97;;
32786;SDS011;19139;49.372;8.580;2023-11-21T10:56:21;2.23;;;1.30;;
32786;SDS011;19139;49.372;8.580;2023-11-21T10:58:49;1.63;;;1.30;;
32786;SDS011;19139;49.372;8.580;2023-11-21T11:01:20;2.23;;;1.40;;
32786;SDS011;19139;49.372;8.580;2023-11-21T11:03:49;2.00;;;1.10;;
32786;SDS011;19139;49.372;8.580;2023-11-21T11:06:17;1.80;;;1.03;;
32786;SDS011;19139;49.372;8.580;2023-11-21T11:08:44;3.63;;;1.23;;
32786;SDS011;19139;49.372;8.580;2023-11-21T11:11:11;1.70;;;1.23;;
32786;SDS011;19139;49.372;8.580;2023-11-21T11:13:43;1.73;;;1.10;;
32786;SDS011;19139;49.372;8.580;2023-11-21T11:16:12;3.73;;;1.50;;
32786;SDS011;19139;49.372;8.580;2023-11-21T11:18:43;1.77;;;0.93;;
32786;SDS011;19139;49.372;8.580;2023-11-21T11:21:26;1.83;;;1.20;;
32786;SDS011;19139;49.372;8.580;2023-11-21T11:27:01;1.37;;;1.17;;
32786;SDS011;19139;49.372;8.580;2023-11-21T11:32:19;2.30;;;1.40;;
32786;SDS011;19139;49.372;8.580;2023-11-21T11:34:50;1.63;;;1.10;;
32786;SDS011;19139;49.372;8.580;2023-11-21T11:37:20;1.90;;;1.00;;
32786;SDS011;19139;49.372;8.580;2023-11-21T11:39:49;2.80;;;1.00;;
32786;SDS011;19139;49.372;8.580;2023-11-21T11:42:17;1.90;;;1.00;;
32786;SDS011;19139;49.372;8.580;2023-11-21T11:47:13;3.07;;;1.33;;
32786;SDS011;19139;49.372;8.580;2023-11-21T11:52:33;1.30;;;0.93;;
32786;SDS011;19139;49.372;8.580;2023-11-21T11:55:01;2.27;;;1.10;;
32786;SDS011;19139;49.372;8.580;2023-11-21T11:57:32;2.90;;;1.17;;
32786;SDS011;19139;49.372;8.580;2023-11-21T12:00:07;1.83;;;0.87;;
32786;SDS011;19139;49.372;8.580;2023-11-21T12:02:38;2.30;;;1.20;;
32786;SDS011;19139;49.372;8.580;2023-11-21T12:05:09;1.63;;;1.20;;
32786;SDS011;19139;49.372;8.580;2023-11-21T12:07:41;2.20;;;1.73;;
32786;SDS011;19139;49.372;8.580;2023-11-21T12:10:10;1.30;;;1.00;;
32786;SDS011;19139;49.372;8.580;2023-11-21T12:12:40;2.10;;;1.10;;
32786;SDS011;19139;49.372;8.580;2023-11-21T12:15:08;2.10;;;1.33;;
32786;SDS011;19139;49.372;8.580;2023-11-21T12:17:35;2.23;;;1.33;;
32786;SDS011;19139;49.372;8.580;2023-11-21T12:20:04;2.13;;;1.30;;
32786;SDS011;19139;49.372;8.580;2023-11-21T12:22:32;3.23;;;1.20;;
32786;SDS011;19139;49.372;8.580;2023-11-21T12:24:59;2.50;;;1.40;;
32786;SDS011;19139;49.372;8.580;2023-11-21T12:27:27;1.40;;;1.07;;
32786;SDS011;19139;49.372;8.580;2023-11-21T12:29:54;2.10;;;1.07;;
32786;SDS011;19139;49.372;8.580;2023-11-21T12:32:22;1.27;;;0.97;;
32786;SDS011;19139;49.372;8.580;2023-11-21T12:34:51;1.43;;;0.80;;
32786;SDS011;19139;49.372;8.580;2023-11-21T12:37:18;1.63;;;1.17;;
32786;SDS011;19139;49.372;8.580;2023-11-21T12:39:45;3.10;;;1.30;;
32786;SDS011;19139;49.372;8.580;2023-11-21T12:42:13;1.80;;;1.10;;
32786;SDS011;19139;49.372;8.580;2023-11-21T12:44:40;1.40;;;1.30;;
32786;SDS011;19139;49.372;8.580;2023-11-21T12:47:08;0.80;;;0.70;;
32786;SDS011;19139;49.372;8.580;2023-11-21T12:49:35;1.60;;;0.90;;
32786;SDS011;19139;49.372;8.580;2023-11-21T12:52:02;1.10;;;0.70;;
32786;SDS011;19139;49.372;8.580;2023-11-21T12:54:30;1.57;;;1.13;;
32786;SDS011;19139;49.372;8.580;2023-11-21T12:56:59;1.37;;;1.00;;
32786;SDS011;19139;49.372;8.580;2023-11-21T12:59:26;1.07;;;0.97;;
32786;SDS011;19139;49.372;8.580;2023-11-21T13:01:54;1.87;;;1.00;;
32786;SDS011;19139;49.372;8.580;2023-11-21T13:04:31;2.10;;;1.00;;
32786;SDS011;19139;49.372;8.580;2023-11-21T13:07:02;1.40;;;0.90;;
32786;SDS011;19139;49.372;8.580;2023-11-21T13:09:36;1.37;;;1.13;;
32786;SDS011;19139;49.372;8.580;2023-11-21T13:12:03;2.23;;;1.20;;
32786;SDS011;19139;49.372;8.580;2023-11-21T13:14:30;1.43;;;1.07;;
32786;SDS011;19139;49.372;8.580;2023-11-21T13:16:58;2.97;;;1.23;;
32786;SDS011;19139;49.372;8.580;2023-11-21T13:19:25;3.23;;;1.03;;
32786;SDS011;19139;49.372;8.580;2023-11-21T13:21:55;2.33;;;1.03;;
32786;SDS011;19139;49.372;8.580;2023-11-21T13:24:23;1.67;;;1.57;;
32786;SDS011;19139;49.372;8.580;2023-11-21T13:26:52;2.70;;;1.00;;
32786;SDS011;19139;49.372;8.580;2023-11-21T13:29:20;2.60;;;1.13;;
32786;SDS011;19139;49.372;8.580;2023-11-21T13:31:47;1.83;;;1.17;;
32786;SDS011;19139;49.372;8.580;2023-11-21T13:34:16;1.07;;;0.90;;
32786;SDS011;19139;49.372;8.580;2023-11-21T13:36:49;2.37;;;1.00;;
32786;SDS011;19139;49.372;8.580;2023-11-21T13:39:22;1.67;;;1.17;;
32786;SDS011;19139;49.372;8.580;2023-11-21T13:41:49;3.07;;;1.70;;
32786;SDS011;19139;49.372;8.580;2023-11-21T13:44:21;3.07;;;1.13;;
32786;SDS011;19139;49.372;8.580;2023-11-21T13:47:00;2.70;;;1.00;;
32786;SDS011;19139;49.372;8.580;2023-11-21T13:49:27;1.97;;;1.00;;
32786;SDS011;19139;49.372;8.580;2023-11-21T13:51:58;3.20;;;0.90;;
32786;SDS011;19139;49.372;8.580;2023-11-21T13:54:26;1.17;;;0.93;;
32786;SDS011;19139;49.372;8.580;2023-11-21T13:56:53;1.53;;;1.03;;
32786;SDS011;19139;49.372;8.580;2023-11-21T13:59:21;1.33;;;0.90;;
32786;SDS011;19139;49.372;8.580;2023-11-21T14:01:51;3.07;;;0.80;;
32786;SDS011;19139;49.372;8.580;2023-11-21T14:04:27;3.40;;;1.50;;
32786;SDS011;19139;49.372;8.580;2023-11-21T14:06:57;1.60;;;1.10;;
32786;SDS011;19139;49.372;8.580;2023-11-21T14:09:27;3.47;;;1.10;;
32786;SDS011;19139;49.372;8.580;2023-11-21T14:12:09;1.27;;;1.03;;
32786;SDS011;19139;49.372;8.580;2023-11-21T14:14:38;1.40;;;0.97;;
32786;SDS011;19139;49.372;8.580;2023-11-21T14:17:05;2.90;;;1.00;;
32786;SDS011;19139;49.372;8.580;2023-11-21T14:19:33;1.57;;;1.00;;
32786;SDS011;19139;49.372;8.580;2023-11-21T14:22:02;2.70;;;0.80;;
32786;SDS011;19139;49.372;8.580;2023-11-21T14:24:30;2.00;;;0.83;;
32786;SDS011;19139;49.372;8.580;2023-11-21T14:26:58;4.13;;;1.67;;
32786;SDS011;19139;49.372;8.580;2023-11-21T14:29:25;3.03;;;1.73;;
32786;SDS011;19139;49.372;8.580;2023-11-21T14:31:53;2.77;;;1.97;;
32786;SDS011;19139;49.372;8.580;2023-11-21T14:34:23;4.27;;;2.40;;
32786;SDS011;19139;49.372;8.580;2023-11-21T14:36:52;4.97;;;2.37;;
32786;SDS011;19139;49.372;8.580;2023-11-21T14:39:20;3.13;;;1.93;;
32786;SDS011;19139;49.372;8.580;2023-11-21T14:41:53;2.77;;;1.70;;
32786;SDS011;19139;49.372;8.580;2023-11-21T14:44:25;3.80;;;1.80;;
32786;SDS011;19139;49.372;8.580;2023-11-21T14:46:55;4.07;;;1.70;;
32786;SDS011;19139;49.372;8.580;2023-11-21T14:49:24;2.33;;;1.53;;
32786;SDS011;19139;49.372;8.580;2023-11-21T14:51:55;3.40;;;1.33;;
32786;SDS011;19139;49.372;8.580;2023-11-21T14:54:47;2.07;;;1.37;;
32786;SDS011;19139;49.372;8.580;2023-11-21T14:57:23;2.57;;;1.57;;
32786;SDS011;19139;49.372;8.580;2023-11-21T14:59:53;1.47;;;1.20;;
32786;SDS011;19139;49.372;8.580;2023-11-21T15:02:24;3.90;;;1.70;;
32786;SDS011;19139;49.372;8.580;2023-11-21T15:05:10;3.30;;;1.77;;
32786;SDS011;19139;49.372;8.580;2023-11-21T15:07:42;2.67;;;1.40;;